RYR81PR LIBR-LIME
Flight info
| Callsign | RYR81PR |
|---|---|
| Flight time | 1h 15m |
| Altitude | 36000 |
| Route | FASAN P92 BAR DCT LIKNO DCT LUTOR DCT BOA DCT OGPUD DCT BETMU DCT OSBUL |
| Aircraft | B38M/M-SDE1FGHILORVWXY/HB1 |
Departure
| Time | 2026-04-15 12:47 |
|---|---|
| Airport | Brindisi Airport (LIBR) |
Arrival
| Time | 2026-04-15 14:03 |
|---|---|
| Airport | Il Caravaggio International Airport (LIME) |
| Time | Latitude | Longitude | Altitude | Speed | Heading |
|---|---|---|---|---|---|
| 2026-04-15 12:25 | 40.65756 | 17.94023 | 46 ft | 0 kts | 322° |
| 2026-04-15 12:41 | 40.65741 | 17.94038 | 46 ft | 4 kts | 323° |
| 2026-04-15 12:41 | 40.65719 | 17.94059 | 46 ft | 4 kts | 324° |
| 2026-04-15 12:41 | 40.65697 | 17.94078 | 43 ft | 4 kts | 333° |
| 2026-04-15 12:42 | 40.65673 | 17.94087 | 45 ft | 4 kts | 13° |
| 2026-04-15 12:42 | 40.65664 | 17.94081 | 42 ft | 0 kts | 52° |
| 2026-04-15 12:45 | 40.65666 | 17.94085 | 43 ft | 2 kts | 52° |
| 2026-04-15 12:45 | 40.65681 | 17.94110 | 45 ft | 5 kts | 52° |
| 2026-04-15 12:45 | 40.65710 | 17.94160 | 46 ft | 8 kts | 52° |
| 2026-04-15 12:45 | 40.65753 | 17.94233 | 46 ft | 12 kts | 52° |
| 2026-04-15 12:46 | 40.65809 | 17.94330 | 46 ft | 15 kts | 52° |
| 2026-04-15 12:46 | 40.65880 | 17.94451 | 44 ft | 19 kts | 52° |
| 2026-04-15 12:46 | 40.65927 | 17.94532 | 42 ft | 4 kts | 52° |
| 2026-04-15 12:46 | 40.65958 | 17.94539 | 41 ft | 7 kts | 334° |
| 2026-04-15 12:47 | 40.66106 | 17.94363 | 42 ft | 67 kts | 316° |
| 2026-04-15 12:47 | 40.66647 | 17.93703 | 42 ft | 142 kts | 317° |
| 2026-04-15 12:47 | 40.67504 | 17.92712 | 335 ft | 178 kts | 319° |
| 2026-04-15 12:47 | 40.68431 | 17.91584 | 1157 ft | 186 kts | 317° |
| 2026-04-15 12:48 | 40.69412 | 17.90406 | 1970 ft | 195 kts | 318° |
| 2026-04-15 12:48 | 40.70441 | 17.89185 | 2692 ft | 208 kts | 317° |
| 2026-04-15 12:48 | 40.71538 | 17.87897 | 3498 ft | 214 kts | 317° |
| 2026-04-15 12:48 | 40.72697 | 17.86580 | 4208 ft | 226 kts | 319° |
| 2026-04-15 12:49 | 40.73926 | 17.85186 | 4841 ft | 245 kts | 317° |
| 2026-04-15 12:49 | 40.75221 | 17.83610 | 5581 ft | 255 kts | 316° |
| 2026-04-15 12:49 | 40.76459 | 17.81845 | 6378 ft | 272 kts | 304° |
| 2026-04-15 12:49 | 40.77281 | 17.79519 | 6967 ft | 289 kts | 282° |
| 2026-04-15 12:50 | 40.77418 | 17.76885 | 7981 ft | 286 kts | 265° |
| 2026-04-15 12:50 | 40.77328 | 17.74242 | 8960 ft | 292 kts | 265° |
| 2026-04-15 12:50 | 40.77253 | 17.71534 | 9876 ft | 298 kts | 265° |
| 2026-04-15 12:50 | 40.77184 | 17.68795 | 10846 ft | 299 kts | 265° |
| 2026-04-15 12:51 | 40.77342 | 17.65999 | 11524 ft | 318 kts | 284° |
| 2026-04-15 12:51 | 40.78264 | 17.63329 | 12165 ft | 332 kts | 296° |
| 2026-04-15 12:51 | 40.79357 | 17.60561 | 13003 ft | 337 kts | 295° |
| 2026-04-15 12:51 | 40.80431 | 17.57826 | 13891 ft | 342 kts | 295° |
| 2026-04-15 12:52 | 40.81537 | 17.55020 | 14688 ft | 347 kts | 295° |
| 2026-04-15 12:52 | 40.82654 | 17.52184 | 15520 ft | 350 kts | 295° |
| 2026-04-15 12:52 | 40.83784 | 17.49315 | 16327 ft | 354 kts | 295° |
| 2026-04-15 12:52 | 40.84924 | 17.46420 | 17114 ft | 358 kts | 295° |
| 2026-04-15 12:53 | 40.86082 | 17.43480 | 17894 ft | 362 kts | 296° |
| 2026-04-15 12:53 | 40.87341 | 17.40582 | 18614 ft | 366 kts | 298° |
| 2026-04-15 12:53 | 40.88192 | 17.38644 | 19050 ft | 369 kts | 297° |
| 2026-04-15 12:53 | 40.89478 | 17.35696 | 19676 ft | 372 kts | 297° |
| 2026-04-15 12:54 | 40.90774 | 17.32713 | 20321 ft | 376 kts | 297° |
| 2026-04-15 12:54 | 40.92079 | 17.29700 | 20954 ft | 379 kts | 297° |
| 2026-04-15 12:54 | 40.93397 | 17.26654 | 21569 ft | 383 kts | 297° |
| 2026-04-15 12:54 | 40.94724 | 17.23584 | 22188 ft | 386 kts | 297° |
| 2026-04-15 12:55 | 40.96066 | 17.20477 | 22787 ft | 390 kts | 297° |
| 2026-04-15 12:55 | 40.97416 | 17.17348 | 23386 ft | 394 kts | 297° |
| 2026-04-15 12:55 | 40.98781 | 17.14181 | 23940 ft | 397 kts | 297° |
| 2026-04-15 12:55 | 41.00154 | 17.10991 | 24451 ft | 401 kts | 297° |
| 2026-04-15 12:56 | 41.01537 | 17.07776 | 24967 ft | 404 kts | 296° |
| 2026-04-15 12:56 | 41.02930 | 17.04534 | 25496 ft | 407 kts | 296° |
| 2026-04-15 12:56 | 41.04338 | 17.01251 | 25923 ft | 412 kts | 296° |
| 2026-04-15 12:56 | 41.05759 | 16.97938 | 26431 ft | 414 kts | 296° |
| 2026-04-15 12:57 | 41.07181 | 16.94616 | 26938 ft | 417 kts | 296° |
| 2026-04-15 12:57 | 41.08600 | 16.91299 | 27410 ft | 420 kts | 296° |
| 2026-04-15 12:57 | 41.10045 | 16.87916 | 27890 ft | 422 kts | 296° |
| 2026-04-15 12:57 | 41.11495 | 16.84518 | 28409 ft | 425 kts | 296° |
| 2026-04-15 12:58 | 41.12954 | 16.81097 | 28875 ft | 428 kts | 296° |
| 2026-04-15 12:58 | 41.14461 | 16.77677 | 29303 ft | 432 kts | 302° |
| 2026-04-15 12:58 | 41.16392 | 16.74596 | 29794 ft | 436 kts | 309° |
| 2026-04-15 12:58 | 41.18374 | 16.71521 | 30170 ft | 439 kts | 308° |
| 2026-04-15 12:59 | 41.22348 | 16.65313 | 31021 ft | 441 kts | 309° |
| 2026-04-15 12:59 | 41.24341 | 16.62202 | 31403 ft | 444 kts | 308° |
| 2026-04-15 12:59 | 41.26347 | 16.59068 | 31749 ft | 446 kts | 308° |
| 2026-04-15 13:00 | 41.28361 | 16.55919 | 32116 ft | 447 kts | 308° |
| 2026-04-15 13:00 | 41.30376 | 16.52764 | 32470 ft | 449 kts | 308° |
| 2026-04-15 13:00 | 41.32412 | 16.49574 | 32821 ft | 452 kts | 308° |
| 2026-04-15 13:00 | 41.34448 | 16.46381 | 33178 ft | 453 kts | 308° |
| 2026-04-15 13:01 | 41.36485 | 16.43182 | 33621 ft | 453 kts | 308° |
| 2026-04-15 13:01 | 41.38513 | 16.39995 | 34102 ft | 451 kts | 308° |
| 2026-04-15 13:01 | 41.40541 | 16.36806 | 34502 ft | 450 kts | 308° |
| 2026-04-15 13:01 | 41.42564 | 16.33619 | 34855 ft | 450 kts | 308° |
| 2026-04-15 13:02 | 41.44584 | 16.30433 | 35148 ft | 452 kts | 308° |
| 2026-04-15 13:02 | 41.46613 | 16.27231 | 35491 ft | 451 kts | 308° |
| 2026-04-15 13:02 | 41.48635 | 16.24035 | 35861 ft | 451 kts | 308° |
| 2026-04-15 13:02 | 41.50663 | 16.20828 | 36048 ft | 452 kts | 308° |
| 2026-04-15 13:03 | 41.54695 | 16.14436 | 36035 ft | 449 kts | 308° |
| 2026-04-15 13:03 | 41.58713 | 16.08058 | 36039 ft | 449 kts | 308° |
| 2026-04-15 13:04 | 41.62726 | 16.01672 | 36024 ft | 449 kts | 308° |
| 2026-04-15 13:04 | 41.66738 | 15.95275 | 36039 ft | 449 kts | 309° |
| 2026-04-15 13:05 | 41.70726 | 15.88902 | 36051 ft | 449 kts | 309° |
| 2026-04-15 13:05 | 41.74734 | 15.82482 | 36047 ft | 450 kts | 309° |
| 2026-04-15 13:06 | 41.78744 | 15.76048 | 36047 ft | 450 kts | 308° |
| 2026-04-15 13:06 | 41.82749 | 15.69607 | 36042 ft | 450 kts | 308° |
| 2026-04-15 13:07 | 41.86743 | 15.63169 | 36036 ft | 449 kts | 309° |
| 2026-04-15 13:07 | 41.90740 | 15.56712 | 36032 ft | 449 kts | 309° |
| 2026-04-15 13:08 | 41.94729 | 15.50256 | 36034 ft | 449 kts | 309° |
| 2026-04-15 13:08 | 41.98718 | 15.43785 | 36036 ft | 448 kts | 309° |
| 2026-04-15 13:09 | 42.02688 | 15.37330 | 36037 ft | 448 kts | 309° |
| 2026-04-15 13:09 | 42.06654 | 15.30869 | 36037 ft | 448 kts | 309° |
| 2026-04-15 13:10 | 42.10626 | 15.24384 | 36038 ft | 451 kts | 309° |
| 2026-04-15 13:10 | 42.14595 | 15.17890 | 36016 ft | 452 kts | 309° |
| 2026-04-15 13:11 | 42.18581 | 15.11353 | 36038 ft | 452 kts | 309° |
| 2026-04-15 13:11 | 42.22572 | 15.04794 | 36042 ft | 452 kts | 309° |
| 2026-04-15 13:12 | 42.26551 | 14.98239 | 36042 ft | 451 kts | 309° |
| 2026-04-15 13:12 | 42.30523 | 14.91684 | 36042 ft | 450 kts | 309° |
| 2026-04-15 13:13 | 42.34496 | 14.85109 | 35843 ft | 451 kts | 309° |
| 2026-04-15 13:13 | 42.36472 | 14.81835 | 35589 ft | 450 kts | 309° |
| 2026-04-15 13:13 | 42.38424 | 14.78596 | 35333 ft | 448 kts | 309° |
| 2026-04-15 13:14 | 42.40385 | 14.75341 | 35097 ft | 446 kts | 309° |
| 2026-04-15 13:14 | 42.42346 | 14.72080 | 35028 ft | 446 kts | 309° |
| 2026-04-15 13:14 | 42.46265 | 14.65554 | 35051 ft | 448 kts | 309° |
| 2026-04-15 13:15 | 42.50189 | 14.59006 | 35079 ft | 447 kts | 309° |
| 2026-04-15 13:15 | 42.52145 | 14.55735 | 35446 ft | 444 kts | 309° |
| 2026-04-15 13:15 | 42.54092 | 14.52477 | 35690 ft | 445 kts | 309° |
| 2026-04-15 13:16 | 42.56049 | 14.49198 | 35890 ft | 447 kts | 309° |
| 2026-04-15 13:16 | 42.58007 | 14.45913 | 36061 ft | 449 kts | 309° |
| 2026-04-15 13:16 | 42.61927 | 14.39327 | 36045 ft | 448 kts | 309° |
| 2026-04-15 13:17 | 42.65839 | 14.32738 | 36063 ft | 448 kts | 309° |
| 2026-04-15 13:17 | 42.69751 | 14.26138 | 36065 ft | 448 kts | 309° |
| 2026-04-15 13:18 | 42.73630 | 14.19579 | 36058 ft | 448 kts | 309° |
| 2026-04-15 13:18 | 42.77522 | 14.12981 | 36056 ft | 445 kts | 309° |
| 2026-04-15 13:19 | 42.81388 | 14.06412 | 36061 ft | 444 kts | 309° |
| 2026-04-15 13:19 | 42.85246 | 13.99843 | 36087 ft | 444 kts | 309° |
| 2026-04-15 13:20 | 42.89098 | 13.93272 | 36064 ft | 444 kts | 309° |
| 2026-04-15 13:20 | 42.92950 | 13.86683 | 36056 ft | 444 kts | 309° |
| 2026-04-15 13:21 | 42.96796 | 13.80090 | 36051 ft | 444 kts | 309° |
| 2026-04-15 13:21 | 43.00650 | 13.73469 | 36054 ft | 445 kts | 309° |
| 2026-04-15 13:22 | 43.04482 | 13.66871 | 36064 ft | 443 kts | 309° |
| 2026-04-15 13:22 | 43.08315 | 13.60258 | 36078 ft | 443 kts | 309° |
| 2026-04-15 13:23 | 43.12139 | 13.53644 | 36072 ft | 443 kts | 309° |
| 2026-04-15 13:23 | 43.15958 | 13.47026 | 36069 ft | 443 kts | 308° |
| 2026-04-15 13:24 | 43.19737 | 13.40459 | 36062 ft | 441 kts | 308° |
| 2026-04-15 13:24 | 43.23539 | 13.33840 | 36070 ft | 442 kts | 308° |
| 2026-04-15 13:25 | 43.27334 | 13.27218 | 36068 ft | 441 kts | 308° |
| 2026-04-15 13:25 | 43.31116 | 13.20599 | 36079 ft | 441 kts | 308° |
| 2026-04-15 13:26 | 43.34901 | 13.13968 | 36078 ft | 441 kts | 308° |
| 2026-04-15 13:26 | 43.38682 | 13.07330 | 36071 ft | 440 kts | 308° |
| 2026-04-15 13:27 | 43.42449 | 13.00696 | 36083 ft | 440 kts | 308° |
| 2026-04-15 13:27 | 43.46213 | 12.94049 | 36080 ft | 439 kts | 308° |
| 2026-04-15 13:28 | 43.49947 | 12.87441 | 36079 ft | 439 kts | 308° |
| 2026-04-15 13:28 | 43.53682 | 12.80821 | 36087 ft | 436 kts | 308° |
| 2026-04-15 13:29 | 43.57401 | 12.74217 | 36092 ft | 435 kts | 308° |
| 2026-04-15 13:29 | 43.61104 | 12.67627 | 36102 ft | 434 kts | 308° |
| 2026-04-15 13:30 | 43.64803 | 12.61030 | 36104 ft | 435 kts | 308° |
| 2026-04-15 13:30 | 43.68504 | 12.54414 | 36110 ft | 435 kts | 308° |
| 2026-04-15 13:31 | 43.72194 | 12.47802 | 36114 ft | 435 kts | 308° |
| 2026-04-15 13:31 | 43.75884 | 12.41177 | 36118 ft | 433 kts | 308° |
| 2026-04-15 13:32 | 43.79578 | 12.34651 | 36115 ft | 428 kts | 314° |
| 2026-04-15 13:32 | 43.83726 | 12.28775 | 36120 ft | 426 kts | 316° |
| 2026-04-15 13:33 | 43.87899 | 12.22916 | 36122 ft | 428 kts | 316° |
| 2026-04-15 13:33 | 43.92064 | 12.17063 | 36119 ft | 425 kts | 316° |
| 2026-04-15 13:34 | 43.96222 | 12.11210 | 36134 ft | 427 kts | 316° |
| 2026-04-15 13:34 | 44.00384 | 12.05338 | 36126 ft | 426 kts | 315° |
| 2026-04-15 13:35 | 44.04507 | 11.99508 | 36128 ft | 424 kts | 316° |
| 2026-04-15 13:35 | 44.08638 | 11.93654 | 36133 ft | 424 kts | 316° |
| 2026-04-15 13:36 | 44.12762 | 11.87798 | 36131 ft | 424 kts | 316° |
| 2026-04-15 13:36 | 44.16890 | 11.81925 | 36139 ft | 424 kts | 316° |
| 2026-04-15 13:37 | 44.21007 | 11.76055 | 36140 ft | 424 kts | 316° |
| 2026-04-15 13:37 | 44.25125 | 11.70169 | 36146 ft | 423 kts | 316° |
| 2026-04-15 13:38 | 44.29217 | 11.64309 | 36091 ft | 414 kts | 317° |
| 2026-04-15 13:38 | 44.31202 | 11.61462 | 35864 ft | 404 kts | 317° |
| 2026-04-15 13:38 | 44.33152 | 11.58662 | 35449 ft | 400 kts | 317° |
| 2026-04-15 13:39 | 44.35092 | 11.55874 | 34961 ft | 399 kts | 317° |
| 2026-04-15 13:39 | 44.37021 | 11.53098 | 34444 ft | 398 kts | 317° |
| 2026-04-15 13:39 | 44.38948 | 11.50323 | 33923 ft | 397 kts | 317° |
| 2026-04-15 13:39 | 44.40870 | 11.47551 | 33378 ft | 396 kts | 316° |
| 2026-04-15 13:40 | 44.42780 | 11.44796 | 32906 ft | 393 kts | 316° |
| 2026-04-15 13:40 | 44.44038 | 11.42982 | 32609 ft | 391 kts | 316° |
| 2026-04-15 13:40 | 44.45920 | 11.40260 | 32175 ft | 388 kts | 315° |
| 2026-04-15 13:40 | 44.48400 | 11.36675 | 31576 ft | 385 kts | 315° |
| 2026-04-15 13:41 | 44.50269 | 11.33993 | 31101 ft | 384 kts | 314° |
| 2026-04-15 13:41 | 44.52129 | 11.31321 | 30653 ft | 382 kts | 315° |
| 2026-04-15 13:41 | 44.53295 | 11.29467 | 30358 ft | 381 kts | 306° |
| 2026-04-15 13:41 | 44.54505 | 11.26130 | 29858 ft | 380 kts | 291° |
| 2026-04-15 13:42 | 44.55488 | 11.22768 | 29450 ft | 376 kts | 294° |
| 2026-04-15 13:42 | 44.56501 | 11.19408 | 29045 ft | 372 kts | 293° |
| 2026-04-15 13:42 | 44.57491 | 11.16072 | 28634 ft | 369 kts | 292° |
| 2026-04-15 13:42 | 44.58459 | 11.12769 | 28251 ft | 366 kts | 292° |
| 2026-04-15 13:43 | 44.59481 | 11.09497 | 27715 ft | 367 kts | 300° |
| 2026-04-15 13:43 | 44.61083 | 11.06672 | 26906 ft | 375 kts | 318° |
| 2026-04-15 13:43 | 44.63141 | 11.04364 | 26139 ft | 382 kts | 319° |
| 2026-04-15 13:43 | 44.65176 | 11.01920 | 25379 ft | 389 kts | 318° |
| 2026-04-15 13:44 | 44.67243 | 10.99408 | 24621 ft | 395 kts | 318° |
| 2026-04-15 13:44 | 44.69332 | 10.96853 | 23868 ft | 401 kts | 317° |
| 2026-04-15 13:44 | 44.71443 | 10.94265 | 23001 ft | 406 kts | 318° |
| 2026-04-15 13:44 | 44.73592 | 10.91629 | 22131 ft | 410 kts | 318° |
| 2026-04-15 13:45 | 44.75751 | 10.88977 | 21284 ft | 414 kts | 318° |
| 2026-04-15 13:45 | 44.77924 | 10.86303 | 20508 ft | 416 kts | 318° |
| 2026-04-15 13:45 | 44.80090 | 10.83643 | 20168 ft | 406 kts | 318° |
| 2026-04-15 13:47 | 44.93002 | 10.67760 | 19827 ft | 314 kts | 319° |
| 2026-04-15 13:47 | 44.94657 | 10.65709 | 19144 ft | 317 kts | 319° |
| 2026-04-15 13:47 | 44.96304 | 10.63667 | 18652 ft | 314 kts | 318° |
| 2026-04-15 13:48 | 44.97936 | 10.61643 | 18117 ft | 311 kts | 319° |
| 2026-04-15 13:48 | 44.99557 | 10.59632 | 17529 ft | 308 kts | 319° |
| 2026-04-15 13:48 | 45.01162 | 10.57638 | 16899 ft | 307 kts | 319° |
| 2026-04-15 13:48 | 45.02758 | 10.55654 | 16348 ft | 304 kts | 319° |
| 2026-04-15 13:49 | 45.04342 | 10.53684 | 15792 ft | 303 kts | 319° |
| 2026-04-15 13:49 | 45.05918 | 10.51722 | 15225 ft | 301 kts | 319° |
| 2026-04-15 13:49 | 45.07481 | 10.49774 | 14667 ft | 299 kts | 319° |
| 2026-04-15 13:49 | 45.09039 | 10.47832 | 14142 ft | 297 kts | 319° |
| 2026-04-15 13:50 | 45.10583 | 10.45906 | 13540 ft | 296 kts | 319° |
| 2026-04-15 13:50 | 45.12120 | 10.43986 | 12976 ft | 293 kts | 319° |
| 2026-04-15 13:50 | 45.13651 | 10.42072 | 12496 ft | 293 kts | 319° |
| 2026-04-15 13:50 | 45.15153 | 10.40195 | 12401 ft | 282 kts | 319° |
| 2026-04-15 13:51 | 45.16598 | 10.38389 | 12318 ft | 272 kts | 320° |
| 2026-04-15 13:51 | 45.18022 | 10.36607 | 12144 ft | 278 kts | 320° |
| 2026-04-15 13:51 | 45.19492 | 10.34763 | 11868 ft | 284 kts | 319° |
| 2026-04-15 13:51 | 45.20982 | 10.32892 | 11555 ft | 287 kts | 319° |
| 2026-04-15 13:52 | 45.22465 | 10.31030 | 11238 ft | 290 kts | 320° |
| 2026-04-15 13:52 | 45.23998 | 10.29104 | 10926 ft | 291 kts | 320° |
| 2026-04-15 13:52 | 45.25495 | 10.27221 | 10610 ft | 291 kts | 320° |
| 2026-04-15 13:52 | 45.27008 | 10.25318 | 10290 ft | 290 kts | 320° |
| 2026-04-15 13:53 | 45.28520 | 10.23414 | 9961 ft | 290 kts | 320° |
| 2026-04-15 13:53 | 45.30029 | 10.21513 | 9582 ft | 290 kts | 320° |
| 2026-04-15 13:53 | 45.31541 | 10.19608 | 9183 ft | 291 kts | 320° |
| 2026-04-15 13:53 | 45.33059 | 10.17691 | 8833 ft | 291 kts | 320° |
| 2026-04-15 13:54 | 45.34563 | 10.15793 | 8521 ft | 289 kts | 320° |
| 2026-04-15 13:54 | 45.36057 | 10.13906 | 8203 ft | 285 kts | 320° |
| 2026-04-15 13:54 | 45.37520 | 10.12056 | 7887 ft | 279 kts | 320° |
| 2026-04-15 13:54 | 45.38957 | 10.10238 | 7586 ft | 274 kts | 320° |
| 2026-04-15 13:55 | 45.40362 | 10.08458 | 7284 ft | 269 kts | 320° |
| 2026-04-15 13:55 | 45.41750 | 10.06699 | 6995 ft | 264 kts | 320° |
| 2026-04-15 13:55 | 45.43111 | 10.04973 | 6707 ft | 260 kts | 320° |
| 2026-04-15 13:55 | 45.44449 | 10.03275 | 6445 ft | 254 kts | 320° |
| 2026-04-15 13:56 | 45.45749 | 10.01625 | 6297 ft | 247 kts | 320° |
| 2026-04-15 13:56 | 45.47012 | 10.00020 | 6175 ft | 239 kts | 320° |
| 2026-04-15 13:56 | 45.48230 | 9.98471 | 6084 ft | 231 kts | 320° |
| 2026-04-15 13:56 | 45.49464 | 9.97051 | 6035 ft | 226 kts | 334° |
| 2026-04-15 13:57 | 45.50931 | 9.96496 | 5820 ft | 221 kts | 358° |
| 2026-04-15 13:57 | 45.52465 | 9.96355 | 5582 ft | 221 kts | 359° |
| 2026-04-15 13:57 | 45.54015 | 9.96239 | 5303 ft | 220 kts | 359° |
| 2026-04-15 13:57 | 45.55523 | 9.96142 | 5058 ft | 219 kts | 359° |
| 2026-04-15 13:58 | 45.57039 | 9.96053 | 4815 ft | 217 kts | 359° |
| 2026-04-15 13:58 | 45.58539 | 9.95966 | 4587 ft | 213 kts | 359° |
| 2026-04-15 13:58 | 45.60012 | 9.95884 | 4350 ft | 210 kts | 358° |
| 2026-04-15 13:58 | 45.61405 | 9.95272 | 4013 ft | 213 kts | 327° |
| 2026-04-15 13:59 | 45.62389 | 9.93729 | 3791 ft | 209 kts | 299° |
| 2026-04-15 13:59 | 45.62909 | 9.91825 | 3530 ft | 204 kts | 285° |
| 2026-04-15 13:59 | 45.63244 | 9.89873 | 3261 ft | 200 kts | 283° |
| 2026-04-15 13:59 | 45.63574 | 9.87984 | 2996 ft | 189 kts | 284° |
| 2026-04-15 14:00 | 45.63888 | 9.86281 | 2776 ft | 167 kts | 284° |
| 2026-04-15 14:00 | 45.64171 | 9.84764 | 2540 ft | 150 kts | 284° |
| 2026-04-15 14:00 | 45.64436 | 9.83333 | 2349 ft | 148 kts | 283° |
| 2026-04-15 14:00 | 45.64700 | 9.81911 | 2148 ft | 148 kts | 284° |
| 2026-04-15 14:01 | 45.65266 | 9.78935 | 1840 ft | 153 kts | 285° |
| 2026-04-15 14:01 | 45.65531 | 9.77491 | 1560 ft | 147 kts | 281° |
| 2026-04-15 14:01 | 45.65773 | 9.76110 | 1320 ft | 139 kts | 282° |
| 2026-04-15 14:02 | 45.66023 | 9.74820 | 1154 ft | 132 kts | 283° |
| 2026-04-15 14:02 | 45.66264 | 9.73535 | 997 ft | 136 kts | 282° |
| 2026-04-15 14:02 | 45.66500 | 9.72238 | 811 ft | 134 kts | 284° |
| 2026-04-15 14:02 | 45.66706 | 9.71116 | 790 ft | 87 kts | 284° |
| 2026-04-15 14:03 | 45.66825 | 9.70472 | 790 ft | 59 kts | 285° |
| 2026-04-15 14:03 | 45.66889 | 9.70071 | 790 ft | 28 kts | 266° |
| 2026-04-15 14:03 | 45.66838 | 9.69881 | 790 ft | 17 kts | 234° |
| 2026-04-15 14:03 | 45.66770 | 9.69876 | 790 ft | 7 kts | 135° |
| 2026-04-15 14:04 | 45.66723 | 9.69881 | 790 ft | 10 kts | 193° |
| 2026-04-15 14:04 | 45.66684 | 9.69867 | 790 ft | 4 kts | 195° |
| 2026-04-15 14:04 | 45.66673 | 9.69863 | 790 ft | 0 kts | 195° |